sensor_id;sensor_type;location;lat;lon;timestamp;temperature;humidity
66710;DHT22;53624;0.000;0.000;2022-08-19T00:01:37;20.90;99.90
66710;DHT22;53624;0.000;0.000;2022-08-19T00:04:06;20.90;99.90
66710;DHT22;53624;0.000;0.000;2022-08-19T00:06:34;20.90;99.90
66710;DHT22;53624;0.000;0.000;2022-08-19T00:09:02;20.90;99.90
66710;DHT22;53624;0.000;0.000;2022-08-19T00:11:30;20.90;99.90
66710;DHT22;53624;0.000;0.000;2022-08-19T00:13:59;20.90;99.90
66710;DHT22;53624;0.000;0.000;2022-08-19T00:16:27;20.90;99.90
66710;DHT22;53624;0.000;0.000;2022-08-19T00:18:54;20.80;99.90
66710;DHT22;53624;0.000;0.000;2022-08-19T00:21:22;20.80;99.90
66710;DHT22;53624;0.000;0.000;2022-08-19T00:23:50;20.80;99.90
66710;DHT22;53624;0.000;0.000;2022-08-19T00:26:17;20.80;99.90
66710;DHT22;53624;0.000;0.000;2022-08-19T00:28:45;20.80;99.90
66710;DHT22;53624;0.000;0.000;2022-08-19T00:31:14;20.80;99.90
66710;DHT22;53624;0.000;0.000;2022-08-19T00:33:42;20.80;99.90
66710;DHT22;53624;0.000;0.000;2022-08-19T00:36:10;20.80;99.90
66710;DHT22;53624;0.000;0.000;2022-08-19T00:38:38;20.80;99.90
66710;DHT22;53624;0.000;0.000;2022-08-19T00:41:07;20.80;99.90
66710;DHT22;53624;0.000;0.000;2022-08-19T00:43:36;20.80;99.90
66710;DHT22;53624;0.000;0.000;2022-08-19T00:46:04;20.80;99.90
66710;DHT22;53624;0.000;0.000;2022-08-19T00:48:33;20.80;99.90
66710;DHT22;53624;0.000;0.000;2022-08-19T00:51:02;20.80;99.90
66710;DHT22;53624;0.000;0.000;2022-08-19T00:53:31;20.80;99.90
66710;DHT22;53624;0.000;0.000;2022-08-19T00:56:00;20.70;99.90
66710;DHT22;53624;0.000;0.000;2022-08-19T00:58:28;20.70;99.90
66710;DHT22;53624;0.000;0.000;2022-08-19T01:00:57;20.70;99.90
66710;DHT22;53624;0.000;0.000;2022-08-19T01:03:24;20.70;99.90
66710;DHT22;53624;0.000;0.000;2022-08-19T01:05:53;20.70;99.90
66710;DHT22;53624;0.000;0.000;2022-08-19T01:08:21;20.70;99.90
66710;DHT22;53624;0.000;0.000;2022-08-19T01:10:50;20.70;99.90
66710;DHT22;53624;0.000;0.000;2022-08-19T01:13:20;20.70;99.90
66710;DHT22;53624;0.000;0.000;2022-08-19T01:15:48;20.80;99.90
66710;DHT22;53624;0.000;0.000;2022-08-19T01:18:18;20.80;99.90
66710;DHT22;53624;0.000;0.000;2022-08-19T01:20:46;20.70;99.90
66710;DHT22;53624;0.000;0.000;2022-08-19T01:23:15;20.70;99.90
66710;DHT22;53624;0.000;0.000;2022-08-19T01:25:44;20.70;99.90
66710;DHT22;53624;0.000;0.000;2022-08-19T01:28:14;20.70;99.90
66710;DHT22;53624;0.000;0.000;2022-08-19T01:30:44;20.70;99.90
66710;DHT22;53624;0.000;0.000;2022-08-19T01:33:12;20.70;99.90
66710;DHT22;53624;0.000;0.000;2022-08-19T01:35:39;20.70;99.90
66710;DHT22;53624;0.000;0.000;2022-08-19T01:38:08;20.70;99.90
66710;DHT22;53624;0.000;0.000;2022-08-19T01:40:39;20.60;99.90
66710;DHT22;53624;0.000;0.000;2022-08-19T01:43:08;20.60;99.90
66710;DHT22;53624;0.000;0.000;2022-08-19T01:45:35;20.60;99.90
66710;DHT22;53624;0.000;0.000;2022-08-19T01:48:06;20.60;99.90
66710;DHT22;53624;0.000;0.000;2022-08-19T01:50:34;20.60;99.90
66710;DHT22;53624;0.000;0.000;2022-08-19T01:53:03;20.60;99.90
66710;DHT22;53624;0.000;0.000;2022-08-19T01:55:30;20.60;99.90
66710;DHT22;53624;0.000;0.000;2022-08-19T01:58:00;20.60;99.90
66710;DHT22;53624;0.000;0.000;2022-08-19T02:00:29;20.60;99.90
66710;DHT22;53624;0.000;0.000;2022-08-19T02:02:58;20.60;99.90
66710;DHT22;53624;0.000;0.000;2022-08-19T02:05:27;20.60;99.90
66710;DHT22;53624;0.000;0.000;2022-08-19T02:07:55;20.60;99.90
66710;DHT22;53624;0.000;0.000;2022-08-19T02:10:22;20.60;99.90
66710;DHT22;53624;0.000;0.000;2022-08-19T02:12:50;20.60;99.90
66710;DHT22;53624;0.000;0.000;2022-08-19T02:15:19;20.60;99.90
66710;DHT22;53624;0.000;0.000;2022-08-19T02:17:47;20.60;99.90
66710;DHT22;53624;0.000;0.000;2022-08-19T02:20:15;20.60;99.90
66710;DHT22;53624;0.000;0.000;2022-08-19T02:22:43;20.50;99.90
66710;DHT22;53624;0.000;0.000;2022-08-19T02:25:11;20.50;99.90
66710;DHT22;53624;0.000;0.000;2022-08-19T02:27:39;20.50;99.90
66710;DHT22;53624;0.000;0.000;2022-08-19T02:30:07;20.50;99.90
66710;DHT22;53624;0.000;0.000;2022-08-19T02:32:36;20.40;99.90
66710;DHT22;53624;0.000;0.000;2022-08-19T02:35:04;20.50;99.90
66710;DHT22;53624;0.000;0.000;2022-08-19T02:37:32;20.40;99.90
66710;DHT22;53624;0.000;0.000;2022-08-19T02:40:16;20.40;99.90
66710;DHT22;53624;0.000;0.000;2022-08-19T02:42:44;20.30;99.90
66710;DHT22;53624;0.000;0.000;2022-08-19T02:45:12;20.40;99.90
66710;DHT22;53624;0.000;0.000;2022-08-19T02:47:41;20.30;99.90
66710;DHT22;53624;0.000;0.000;2022-08-19T02:50:08;20.40;99.90
66710;DHT22;53624;0.000;0.000;2022-08-19T02:52:36;20.40;99.90
66710;DHT22;53624;0.000;0.000;2022-08-19T02:55:04;20.20;99.90
66710;DHT22;53624;0.000;0.000;2022-08-19T02:57:31;20.30;99.90
66710;DHT22;53624;0.000;0.000;2022-08-19T03:00:00;20.30;99.90
66710;DHT22;53624;0.000;0.000;2022-08-19T03:02:28;20.30;99.90
66710;DHT22;53624;0.000;0.000;2022-08-19T03:04:57;20.30;99.90
66710;DHT22;53624;0.000;0.000;2022-08-19T03:07:25;20.30;99.90
66710;DHT22;53624;0.000;0.000;2022-08-19T03:09:52;20.30;99.90
66710;DHT22;53624;0.000;0.000;2022-08-19T03:12:20;20.30;99.90
66710;DHT22;53624;0.000;0.000;2022-08-19T03:14:47;20.30;99.90
66710;DHT22;53624;0.000;0.000;2022-08-19T03:17:15;20.30;99.90
66710;DHT22;53624;0.000;0.000;2022-08-19T03:19:42;20.30;99.90
66710;DHT22;53624;0.000;0.000;2022-08-19T03:22:11;20.30;99.90
66710;DHT22;53624;0.000;0.000;2022-08-19T03:24:38;20.30;99.90
66710;DHT22;53624;0.000;0.000;2022-08-19T03:27:06;20.30;99.90
66710;DHT22;53624;0.000;0.000;2022-08-19T03:29:33;20.30;99.90
66710;DHT22;53624;0.000;0.000;2022-08-19T03:32:04;20.30;99.90
66710;DHT22;53624;0.000;0.000;2022-08-19T03:34:33;20.30;99.90
66710;DHT22;53624;0.000;0.000;2022-08-19T03:37:02;20.30;99.90
66710;DHT22;53624;0.000;0.000;2022-08-19T03:39:32;20.30;99.90
66710;DHT22;53624;0.000;0.000;2022-08-19T03:41:59;20.30;99.90
66710;DHT22;53624;0.000;0.000;2022-08-19T03:44:28;20.30;99.90
66710;DHT22;53624;0.000;0.000;2022-08-19T03:46:58;20.30;99.90
66710;DHT22;53624;0.000;0.000;2022-08-19T03:49:27;20.30;99.90
66710;DHT22;53624;0.000;0.000;2022-08-19T03:51:55;20.20;99.90
66710;DHT22;53624;0.000;0.000;2022-08-19T03:54:24;20.20;99.90
66710;DHT22;53624;0.000;0.000;2022-08-19T03:56:54;20.20;99.90
66710;DHT22;53624;0.000;0.000;2022-08-19T03:59:22;20.30;99.90
66710;DHT22;53624;0.000;0.000;2022-08-19T04:01:51;20.30;99.90
66710;DHT22;53624;0.000;0.000;2022-08-19T04:04:18;20.30;99.90
66710;DHT22;53624;0.000;0.000;2022-08-19T04:06:45;20.30;99.90
66710;DHT22;53624;0.000;0.000;2022-08-19T04:09:14;20.20;99.90
66710;DHT22;53624;0.000;0.000;2022-08-19T04:11:44;20.20;99.90
66710;DHT22;53624;0.000;0.000;2022-08-19T04:14:14;20.20;99.90
66710;DHT22;53624;0.000;0.000;2022-08-19T04:16:42;20.20;99.90
66710;DHT22;53624;0.000;0.000;2022-08-19T04:19:10;20.30;99.90
66710;DHT22;53624;0.000;0.000;2022-08-19T04:21:38;20.20;99.90
66710;DHT22;53624;0.000;0.000;2022-08-19T04:24:05;20.20;99.90
66710;DHT22;53624;0.000;0.000;2022-08-19T04:26:34;20.30;99.90
66710;DHT22;53624;0.000;0.000;2022-08-19T04:29:03;20.20;99.90
66710;DHT22;53624;0.000;0.000;2022-08-19T04:31:33;20.20;99.90
66710;DHT22;53624;0.000;0.000;2022-08-19T04:34:03;20.20;99.90
66710;DHT22;53624;0.000;0.000;2022-08-19T04:36:32;20.20;99.90
66710;DHT22;53624;0.000;0.000;2022-08-19T04:39:01;20.20;99.90
66710;DHT22;53624;0.000;0.000;2022-08-19T04:41:28;20.20;99.90
66710;DHT22;53624;0.000;0.000;2022-08-19T04:44:13;20.20;99.90
66710;DHT22;53624;0.000;0.000;2022-08-19T04:46:45;20.10;99.90
66710;DHT22;53624;0.000;0.000;2022-08-19T04:49:14;20.10;99.90
66710;DHT22;53624;0.000;0.000;2022-08-19T04:51:43;20.10;99.90
66710;DHT22;53624;0.000;0.000;2022-08-19T04:54:11;20.20;99.90
66710;DHT22;53624;0.000;0.000;2022-08-19T04:56:39;20.10;99.90
66710;DHT22;53624;0.000;0.000;2022-08-19T04:59:06;20.10;99.90
66710;DHT22;53624;0.000;0.000;2022-08-19T05:01:34;20.10;99.90
66710;DHT22;53624;0.000;0.000;2022-08-19T05:04:04;20.10;99.90
66710;DHT22;53624;0.000;0.000;2022-08-19T05:06:33;20.10;99.90
66710;DHT22;53624;0.000;0.000;2022-08-19T05:09:01;20.10;99.90
66710;DHT22;53624;0.000;0.000;2022-08-19T05:11:29;20.10;99.90
66710;DHT22;53624;0.000;0.000;2022-08-19T05:13:57;20.10;99.90
66710;DHT22;53624;0.000;0.000;2022-08-19T05:16:24;20.10;99.90
66710;DHT22;53624;0.000;0.000;2022-08-19T05:18:52;20.10;99.90
66710;DHT22;53624;0.000;0.000;2022-08-19T05:21:38;20.00;99.90
66710;DHT22;53624;0.000;0.000;2022-08-19T05:24:23;20.00;99.90
66710;DHT22;53624;0.000;0.000;2022-08-19T05:26:51;20.00;99.90
66710;DHT22;53624;0.000;0.000;2022-08-19T05:29:23;20.00;99.90
66710;DHT22;53624;0.000;0.000;2022-08-19T05:31:50;20.00;99.90
66710;DHT22;53624;0.000;0.000;2022-08-19T05:34:18;20.10;99.90
66710;DHT22;53624;0.000;0.000;2022-08-19T05:36:49;20.00;99.90
66710;DHT22;53624;0.000;0.000;2022-08-19T05:39:17;20.00;99.90
66710;DHT22;53624;0.000;0.000;2022-08-19T05:41:46;20.00;99.90
66710;DHT22;53624;0.000;0.000;2022-08-19T05:44:14;20.00;99.90
66710;DHT22;53624;0.000;0.000;2022-08-19T05:46:43;20.00;99.90
66710;DHT22;53624;0.000;0.000;2022-08-19T05:49:13;20.00;99.90
66710;DHT22;53624;0.000;0.000;2022-08-19T05:51:41;20.00;99.90
66710;DHT22;53624;0.000;0.000;2022-08-19T05:54:10;19.90;99.90
66710;DHT22;53624;0.000;0.000;2022-08-19T05:56:39;20.00;99.90
66710;DHT22;53624;0.000;0.000;2022-08-19T05:59:07;20.00;99.90
66710;DHT22;53624;0.000;0.000;2022-08-19T06:01:35;19.90;99.90
66710;DHT22;53624;0.000;0.000;2022-08-19T06:04:03;19.80;99.90
66710;DHT22;53624;0.000;0.000;2022-08-19T06:06:31;19.90;99.90
66710;DHT22;53624;0.000;0.000;2022-08-19T06:09:00;19.90;99.90
66710;DHT22;53624;0.000;0.000;2022-08-19T06:11:33;19.90;99.90
66710;DHT22;53624;0.000;0.000;2022-08-19T06:14:03;19.80;99.90
66710;DHT22;53624;0.000;0.000;2022-08-19T06:16:30;19.80;99.90
66710;DHT22;53624;0.000;0.000;2022-08-19T06:19:02;19.90;99.90
66710;DHT22;53624;0.000;0.000;2022-08-19T06:21:33;20.00;99.90
66710;DHT22;53624;0.000;0.000;2022-08-19T06:24:03;20.40;99.90
66710;DHT22;53624;0.000;0.000;2022-08-19T06:26:34;20.40;99.90
66710;DHT22;53624;0.000;0.000;2022-08-19T06:29:02;20.40;99.90
66710;DHT22;53624;0.000;0.000;2022-08-19T06:31:32;20.40;99.90
66710;DHT22;53624;0.000;0.000;2022-08-19T06:34:00;20.20;99.90
66710;DHT22;53624;0.000;0.000;2022-08-19T06:36:29;20.20;99.90
66710;DHT22;53624;0.000;0.000;2022-08-19T06:38:59;20.30;99.90
66710;DHT22;53624;0.000;0.000;2022-08-19T06:41:27;20.30;99.90
66710;DHT22;53624;0.000;0.000;2022-08-19T06:43:56;20.40;99.90
66710;DHT22;53624;0.000;0.000;2022-08-19T06:46:24;20.30;99.90
66710;DHT22;53624;0.000;0.000;2022-08-19T06:48:52;20.10;99.90
66710;DHT22;53624;0.000;0.000;2022-08-19T06:51:21;19.70;99.90
66710;DHT22;53624;0.000;0.000;2022-08-19T06:53:50;19.70;99.90
66710;DHT22;53624;0.000;0.000;2022-08-19T06:56:19;19.70;99.90
66710;DHT22;53624;0.000;0.000;2022-08-19T06:58:47;19.60;99.90
66710;DHT22;53624;0.000;0.000;2022-08-19T07:01:20;19.60;99.90
66710;DHT22;53624;0.000;0.000;2022-08-19T07:03:49;19.40;99.90
66710;DHT22;53624;0.000;0.000;2022-08-19T07:06:17;19.30;99.90
66710;DHT22;53624;0.000;0.000;2022-08-19T07:08:47;19.40;99.90
66710;DHT22;53624;0.000;0.000;2022-08-19T07:11:15;19.40;99.90
66710;DHT22;53624;0.000;0.000;2022-08-19T07:13:44;19.30;99.90
66710;DHT22;53624;0.000;0.000;2022-08-19T07:16:15;19.40;99.90
66710;DHT22;53624;0.000;0.000;2022-08-19T07:18:44;19.30;99.90
66710;DHT22;53624;0.000;0.000;2022-08-19T07:21:13;19.40;99.90
66710;DHT22;53624;0.000;0.000;2022-08-19T07:23:41;19.40;99.90
66710;DHT22;53624;0.000;0.000;2022-08-19T07:26:14;19.50;99.90
66710;DHT22;53624;0.000;0.000;2022-08-19T07:28:45;19.60;99.90
66710;DHT22;53624;0.000;0.000;2022-08-19T07:31:14;19.70;99.90
66710;DHT22;53624;0.000;0.000;2022-08-19T07:33:48;19.90;99.90
66710;DHT22;53624;0.000;0.000;2022-08-19T07:36:17;20.00;99.90
66710;DHT22;53624;0.000;0.000;2022-08-19T07:38:45;20.10;99.90
66710;DHT22;53624;0.000;0.000;2022-08-19T07:41:15;20.40;99.90
66710;DHT22;53624;0.000;0.000;2022-08-19T07:43:43;20.40;99.90
66710;DHT22;53624;0.000;0.000;2022-08-19T07:46:11;20.40;99.90
66710;DHT22;53624;0.000;0.000;2022-08-19T07:48:39;20.50;99.90
66710;DHT22;53624;0.000;0.000;2022-08-19T07:51:09;20.50;99.90
66710;DHT22;53624;0.000;0.000;2022-08-19T07:53:37;20.50;99.90
66710;DHT22;53624;0.000;0.000;2022-08-19T07:56:06;20.60;99.90
66710;DHT22;53624;0.000;0.000;2022-08-19T07:58:40;20.50;99.90
66710;DHT22;53624;0.000;0.000;2022-08-19T08:01:09;20.60;99.90
66710;DHT22;53624;0.000;0.000;2022-08-19T08:03:37;20.50;99.90
66710;DHT22;53624;0.000;0.000;2022-08-19T08:06:24;20.60;99.90
66710;DHT22;53624;0.000;0.000;2022-08-19T08:09:09;20.60;99.90
66710;DHT22;53624;0.000;0.000;2022-08-19T08:11:44;20.50;99.90
66710;DHT22;53624;0.000;0.000;2022-08-19T08:14:16;20.60;99.90
66710;DHT22;53624;0.000;0.000;2022-08-19T08:16:44;20.80;99.90
66710;DHT22;53624;0.000;0.000;2022-08-19T08:19:12;21.00;99.90
66710;DHT22;53624;0.000;0.000;2022-08-19T08:21:42;20.90;99.90
66710;DHT22;53624;0.000;0.000;2022-08-19T08:24:10;21.10;99.90
66710;DHT22;53624;0.000;0.000;2022-08-19T08:26:38;21.10;99.90
66710;DHT22;53624;0.000;0.000;2022-08-19T08:29:06;21.30;99.90
66710;DHT22;53624;0.000;0.000;2022-08-19T08:31:37;21.40;99.90
66710;DHT22;53624;0.000;0.000;2022-08-19T08:34:05;21.60;99.90
66710;DHT22;53624;0.000;0.000;2022-08-19T08:36:32;21.60;99.90
66710;DHT22;53624;0.000;0.000;2022-08-19T08:39:01;21.60;99.90
66710;DHT22;53624;0.000;0.000;2022-08-19T08:41:31;21.60;99.90
66710;DHT22;53624;0.000;0.000;2022-08-19T08:44:02;21.70;99.90
66710;DHT22;53624;0.000;0.000;2022-08-19T08:46:41;21.70;99.90
66710;DHT22;53624;0.000;0.000;2022-08-19T08:49:18;21.70;99.90
66710;DHT22;53624;0.000;0.000;2022-08-19T08:51:48;21.70;99.90
66710;DHT22;53624;0.000;0.000;2022-08-19T08:54:20;21.60;99.90
66710;DHT22;53624;0.000;0.000;2022-08-19T08:56:51;21.60;99.90
66710;DHT22;53624;0.000;0.000;2022-08-19T08:59:22;21.50;99.90
66710;DHT22;53624;0.000;0.000;2022-08-19T09:01:51;21.50;99.90
66710;DHT22;53624;0.000;0.000;2022-08-19T09:04:19;21.50;99.90
66710;DHT22;53624;0.000;0.000;2022-08-19T09:06:48;21.40;99.90
66710;DHT22;53624;0.000;0.000;2022-08-19T09:09:20;21.50;99.90
66710;DHT22;53624;0.000;0.000;2022-08-19T09:11:56;21.50;99.90
66710;DHT22;53624;0.000;0.000;2022-08-19T09:14:35;21.50;99.90
66710;DHT22;53624;0.000;0.000;2022-08-19T09:17:20;21.50;99.90
66710;DHT22;53624;0.000;0.000;2022-08-19T09:19:57;21.50;99.90
66710;DHT22;53624;0.000;0.000;2022-08-19T09:22:28;21.50;99.90
66710;DHT22;53624;0.000;0.000;2022-08-19T09:24:56;21.50;99.90
66710;DHT22;53624;0.000;0.000;2022-08-19T09:27:25;21.50;99.90
66710;DHT22;53624;0.000;0.000;2022-08-19T09:29:53;21.40;99.90
66710;DHT22;53624;0.000;0.000;2022-08-19T09:32:21;21.40;99.90
66710;DHT22;53624;0.000;0.000;2022-08-19T09:34:49;21.30;99.90
66710;DHT22;53624;0.000;0.000;2022-08-19T09:37:21;21.30;99.90
66710;DHT22;53624;0.000;0.000;2022-08-19T09:39:49;21.40;99.90
66710;DHT22;53624;0.000;0.000;2022-08-19T09:42:17;21.50;99.90
66710;DHT22;53624;0.000;0.000;2022-08-19T09:44:46;21.70;99.90
66710;DHT22;53624;0.000;0.000;2022-08-19T09:47:13;21.90;99.90
66710;DHT22;53624;0.000;0.000;2022-08-19T09:49:41;21.90;99.90
66710;DHT22;53624;0.000;0.000;2022-08-19T09:52:09;22.00;99.90
66710;DHT22;53624;0.000;0.000;2022-08-19T09:54:36;22.00;99.90
66710;DHT22;53624;0.000;0.000;2022-08-19T09:57:04;22.00;99.90
66710;DHT22;53624;0.000;0.000;2022-08-19T09:59:32;22.10;99.90
66710;DHT22;53624;0.000;0.000;2022-08-19T10:02:01;22.10;99.90
66710;DHT22;53624;0.000;0.000;2022-08-19T10:04:28;22.20;99.90
66710;DHT22;53624;0.000;0.000;2022-08-19T10:07:09;22.30;99.90
66710;DHT22;53624;0.000;0.000;2022-08-19T10:09:37;22.30;99.90
66710;DHT22;53624;0.000;0.000;2022-08-19T10:12:07;22.40;99.90
66710;DHT22;53624;0.000;0.000;2022-08-19T10:14:34;22.50;99.90
66710;DHT22;53624;0.000;0.000;2022-08-19T10:17:03;22.50;99.90
66710;DHT22;53624;0.000;0.000;2022-08-19T10:19:31;22.60;99.90
66710;DHT22;53624;0.000;0.000;2022-08-19T10:22:05;22.60;99.90
66710;DHT22;53624;0.000;0.000;2022-08-19T10:24:33;22.70;99.90
66710;DHT22;53624;0.000;0.000;2022-08-19T10:27:01;22.70;99.90
66710;DHT22;53624;0.000;0.000;2022-08-19T10:29:29;22.80;99.90
66710;DHT22;53624;0.000;0.000;2022-08-19T10:31:57;22.80;99.90
66710;DHT22;53624;0.000;0.000;2022-08-19T10:34:27;22.90;99.90
66710;DHT22;53624;0.000;0.000;2022-08-19T10:36:55;23.00;99.90
66710;DHT22;53624;0.000;0.000;2022-08-19T10:39:23;23.10;99.90
66710;DHT22;53624;0.000;0.000;2022-08-19T10:41:51;23.20;99.90
66710;DHT22;53624;0.000;0.000;2022-08-19T10:44:18;23.30;99.90
66710;DHT22;53624;0.000;0.000;2022-08-19T10:46:47;23.30;99.90
66710;DHT22;53624;0.000;0.000;2022-08-19T10:49:15;23.30;99.90
66710;DHT22;53624;0.000;0.000;2022-08-19T10:51:44;23.30;99.90
66710;DHT22;53624;0.000;0.000;2022-08-19T10:54:29;23.30;99.90
66710;DHT22;53624;0.000;0.000;2022-08-19T10:57:11;23.20;99.90
66710;DHT22;53624;0.000;0.000;2022-08-19T10:59:38;23.20;99.90
66710;DHT22;53624;0.000;0.000;2022-08-19T11:02:07;23.20;99.90
66710;DHT22;53624;0.000;0.000;2022-08-19T11:04:35;23.20;99.90
66710;DHT22;53624;0.000;0.000;2022-08-19T11:07:04;23.20;99.90
66710;DHT22;53624;0.000;0.000;2022-08-19T11:09:36;23.30;99.90
66710;DHT22;53624;0.000;0.000;2022-08-19T11:12:05;23.30;99.90
66710;DHT22;53624;0.000;0.000;2022-08-19T11:14:33;23.30;99.90
66710;DHT22;53624;0.000;0.000;2022-08-19T11:17:02;23.30;99.90
66710;DHT22;53624;0.000;0.000;2022-08-19T11:19:30;23.40;99.90
66710;DHT22;53624;0.000;0.000;2022-08-19T11:21:57;23.40;99.90
66710;DHT22;53624;0.000;0.000;2022-08-19T11:24:28;23.40;99.90
66710;DHT22;53624;0.000;0.000;2022-08-19T11:27:00;23.50;99.90
66710;DHT22;53624;0.000;0.000;2022-08-19T11:29:28;23.60;99.90
66710;DHT22;53624;0.000;0.000;2022-08-19T11:31:56;23.70;99.90
66710;DHT22;53624;0.000;0.000;2022-08-19T11:34:24;23.80;99.90
66710;DHT22;53624;0.000;0.000;2022-08-19T11:36:53;23.90;99.90
66710;DHT22;53624;0.000;0.000;2022-08-19T11:39:24;24.00;99.90
66710;DHT22;53624;0.000;0.000;2022-08-19T11:41:53;24.00;99.90
66710;DHT22;53624;0.000;0.000;2022-08-19T11:44:21;23.90;99.90
66710;DHT22;53624;0.000;0.000;2022-08-19T11:46:48;23.80;99.90
66710;DHT22;53624;0.000;0.000;2022-08-19T11:49:17;23.70;99.90
66710;DHT22;53624;0.000;0.000;2022-08-19T11:51:46;23.50;99.90
66710;DHT22;53624;0.000;0.000;2022-08-19T11:54:14;23.50;99.90
66710;DHT22;53624;0.000;0.000;2022-08-19T11:56:42;23.40;99.90
66710;DHT22;53624;0.000;0.000;2022-08-19T11:59:11;23.40;99.90
66710;DHT22;53624;0.000;0.000;2022-08-19T12:01:39;23.30;99.90
66710;DHT22;53624;0.000;0.000;2022-08-19T12:04:08;23.30;99.90
66710;DHT22;53624;0.000;0.000;2022-08-19T12:06:37;23.30;99.90
66710;DHT22;53624;0.000;0.000;2022-08-19T12:09:06;23.30;99.90
66710;DHT22;53624;0.000;0.000;2022-08-19T12:11:34;23.30;99.90
66710;DHT22;53624;0.000;0.000;2022-08-19T12:14:02;23.40;99.90
66710;DHT22;53624;0.000;0.000;2022-08-19T12:16:31;23.40;99.90
66710;DHT22;53624;0.000;0.000;2022-08-19T12:18:59;23.40;99.90
66710;DHT22;53624;0.000;0.000;2022-08-19T12:21:30;23.50;99.90
66710;DHT22;53624;0.000;0.000;2022-08-19T12:23:58;23.50;99.90
66710;DHT22;53624;0.000;0.000;2022-08-19T12:26:27;23.50;99.90
66710;DHT22;53624;0.000;0.000;2022-08-19T12:28:54;23.60;99.90
66710;DHT22;53624;0.000;0.000;2022-08-19T12:31:22;23.60;99.90
66710;DHT22;53624;0.000;0.000;2022-08-19T12:33:51;23.60;99.90
66710;DHT22;53624;0.000;0.000;2022-08-19T12:36:19;23.60;99.90
66710;DHT22;53624;0.000;0.000;2022-08-19T12:38:47;23.60;99.90
66710;DHT22;53624;0.000;0.000;2022-08-19T12:41:15;23.60;99.90
66710;DHT22;53624;0.000;0.000;2022-08-19T12:43:44;23.60;99.90
66710;DHT22;53624;0.000;0.000;2022-08-19T12:46:14;23.60;99.90
66710;DHT22;53624;0.000;0.000;2022-08-19T12:48:41;23.60;99.90
66710;DHT22;53624;0.000;0.000;2022-08-19T12:51:12;23.60;99.90
66710;DHT22;53624;0.000;0.000;2022-08-19T12:53:40;23.70;99.90
66710;DHT22;53624;0.000;0.000;2022-08-19T12:56:08;23.70;99.90
66710;DHT22;53624;0.000;0.000;2022-08-19T12:58:36;23.70;99.90
66710;DHT22;53624;0.000;0.000;2022-08-19T13:01:08;23.70;99.90
66710;DHT22;53624;0.000;0.000;2022-08-19T13:03:36;23.70;99.90
66710;DHT22;53624;0.000;0.000;2022-08-19T13:06:03;23.60;99.90
66710;DHT22;53624;0.000;0.000;2022-08-19T13:08:32;23.60;99.90
66710;DHT22;53624;0.000;0.000;2022-08-19T13:11:06;23.60;99.90
66710;DHT22;53624;0.000;0.000;2022-08-19T13:13:34;23.60;99.90
66710;DHT22;53624;0.000;0.000;2022-08-19T13:16:01;23.60;99.90
66710;DHT22;53624;0.000;0.000;2022-08-19T13:18:30;23.60;99.90
66710;DHT22;53624;0.000;0.000;2022-08-19T13:21:01;23.60;99.90
66710;DHT22;53624;0.000;0.000;2022-08-19T13:23:29;23.70;99.90
66710;DHT22;53624;0.000;0.000;2022-08-19T13:25:58;23.70;99.90
66710;DHT22;53624;0.000;0.000;2022-08-19T13:28:26;23.80;99.90
66710;DHT22;53624;0.000;0.000;2022-08-19T13:31:14;23.80;99.90
66710;DHT22;53624;0.000;0.000;2022-08-19T13:33:59;23.80;99.90
66710;DHT22;53624;0.000;0.000;2022-08-19T13:36:26;23.90;99.90
66710;DHT22;53624;0.000;0.000;2022-08-19T13:38:54;23.90;99.90
66710;DHT22;53624;0.000;0.000;2022-08-19T13:41:23;23.80;99.90
66710;DHT22;53624;0.000;0.000;2022-08-19T13:43:51;23.80;99.90
66710;DHT22;53624;0.000;0.000;2022-08-19T13:46:18;23.70;99.90
66710;DHT22;53624;0.000;0.000;2022-08-19T13:48:46;23.70;99.90
66710;DHT22;53624;0.000;0.000;2022-08-19T13:51:15;23.70;99.90
66710;DHT22;53624;0.000;0.000;2022-08-19T13:53:43;23.70;99.90
66710;DHT22;53624;0.000;0.000;2022-08-19T13:56:11;23.70;99.90
66710;DHT22;53624;0.000;0.000;2022-08-19T13:58:40;23.60;99.90
66710;DHT22;53624;0.000;0.000;2022-08-19T14:01:08;23.60;99.90
66710;DHT22;53624;0.000;0.000;2022-08-19T14:03:35;23.60;99.90
66710;DHT22;53624;0.000;0.000;2022-08-19T14:06:03;23.60;99.90
66710;DHT22;53624;0.000;0.000;2022-08-19T14:08:31;23.60;99.90
66710;DHT22;53624;0.000;0.000;2022-08-19T14:10:58;23.60;99.90
66710;DHT22;53624;0.000;0.000;2022-08-19T14:13:26;23.60;99.90
66710;DHT22;53624;0.000;0.000;2022-08-19T14:15:55;23.70;99.90
66710;DHT22;53624;0.000;0.000;2022-08-19T14:18:24;23.70;99.90
66710;DHT22;53624;0.000;0.000;2022-08-19T14:20:51;23.70;99.90
66710;DHT22;53624;0.000;0.000;2022-08-19T14:23:19;23.70;99.90
66710;DHT22;53624;0.000;0.000;2022-08-19T14:25:47;23.60;99.90
66710;DHT22;53624;0.000;0.000;2022-08-19T14:28:15;23.60;99.90
66710;DHT22;53624;0.000;0.000;2022-08-19T14:30:42;23.50;99.90
66710;DHT22;53624;0.000;0.000;2022-08-19T14:33:11;23.50;99.90
66710;DHT22;53624;0.000;0.000;2022-08-19T14:35:40;23.40;99.90
66710;DHT22;53624;0.000;0.000;2022-08-19T14:38:14;23.40;99.90
66710;DHT22;53624;0.000;0.000;2022-08-19T14:40:42;23.40;99.90
66710;DHT22;53624;0.000;0.000;2022-08-19T14:43:09;23.40;99.90
66710;DHT22;53624;0.000;0.000;2022-08-19T14:45:38;23.40;99.90
66710;DHT22;53624;0.000;0.000;2022-08-19T14:48:07;23.40;99.90
66710;DHT22;53624;0.000;0.000;2022-08-19T14:50:36;23.40;99.90
66710;DHT22;53624;0.000;0.000;2022-08-19T14:53:04;23.40;99.90
66710;DHT22;53624;0.000;0.000;2022-08-19T14:55:32;23.40;99.90
66710;DHT22;53624;0.000;0.000;2022-08-19T14:58:00;23.40;99.90
66710;DHT22;53624;0.000;0.000;2022-08-19T15:00:28;23.50;99.90
66710;DHT22;53624;0.000;0.000;2022-08-19T15:02:55;23.50;99.90
66710;DHT22;53624;0.000;0.000;2022-08-19T15:05:23;23.50;99.90
66710;DHT22;53624;0.000;0.000;2022-08-19T15:07:51;23.50;99.90
66710;DHT22;53624;0.000;0.000;2022-08-19T15:10:20;23.50;99.90
66710;DHT22;53624;0.000;0.000;2022-08-19T15:12:50;23.50;99.90
66710;DHT22;53624;0.000;0.000;2022-08-19T15:15:18;23.60;99.90
66710;DHT22;53624;0.000;0.000;2022-08-19T15:17:48;23.60;99.90
66710;DHT22;53624;0.000;0.000;2022-08-19T15:20:18;23.70;99.90
66710;DHT22;53624;0.000;0.000;2022-08-19T15:22:46;23.80;99.90
66710;DHT22;53624;0.000;0.000;2022-08-19T15:25:16;23.90;99.90
66710;DHT22;53624;0.000;0.000;2022-08-19T15:27:44;24.00;99.90
66710;DHT22;53624;0.000;0.000;2022-08-19T15:30:12;24.10;99.90
66710;DHT22;53624;0.000;0.000;2022-08-19T15:32:39;24.10;99.90
66710;DHT22;53624;0.000;0.000;2022-08-19T15:35:07;24.10;99.90
66710;DHT22;53624;0.000;0.000;2022-08-19T15:37:34;24.10;99.90
66710;DHT22;53624;0.000;0.000;2022-08-19T15:40:02;24.10;99.90
66710;DHT22;53624;0.000;0.000;2022-08-19T15:42:31;24.00;99.90
66710;DHT22;53624;0.000;0.000;2022-08-19T15:44:59;24.00;99.90
66710;DHT22;53624;0.000;0.000;2022-08-19T15:47:28;24.00;99.90
66710;DHT22;53624;0.000;0.000;2022-08-19T15:49:55;24.00;99.90
66710;DHT22;53624;0.000;0.000;2022-08-19T15:52:24;23.90;99.90
66710;DHT22;53624;0.000;0.000;2022-08-19T15:54:52;23.90;99.90
66710;DHT22;53624;0.000;0.000;2022-08-19T15:57:19;23.90;99.90